createdAt,value
2016-12-05T00:00:22.138Z,17.66
2016-12-05T00:00:54.492Z,17.71
2016-12-05T00:01:26.831Z,17.55
2016-12-05T00:01:59.152Z,17.65
2016-12-05T00:02:31.489Z,17.54
2016-12-05T00:03:03.817Z,17.62
2016-12-05T00:03:36.141Z,17.54
2016-12-05T00:04:08.462Z,17.66
2016-12-05T00:04:40.775Z,17.57
2016-12-05T00:05:13.079Z,17.57
2016-12-05T00:05:45.396Z,17.6
2016-12-05T00:06:17.693Z,17.57
2016-12-05T00:06:50.003Z,17.71
2016-12-05T00:07:22.330Z,17.57
2016-12-05T00:07:54.631Z,17.68
2016-12-05T00:08:26.955Z,17.6
2016-12-05T00:08:59.290Z,17.68
2016-12-05T00:09:31.597Z,17.63
2016-12-05T00:10:03.920Z,17.68
2016-12-05T00:10:36.243Z,17.69
2016-12-05T00:11:08.572Z,17.58
2016-12-05T00:11:40.870Z,17.6
2016-12-05T00:12:13.190Z,17.58
2016-12-05T00:12:45.498Z,17.66
2016-12-05T00:13:17.832Z,17.63
2016-12-05T00:13:50.129Z,17.58
2016-12-05T00:14:22.438Z,17.62
2016-12-05T00:14:54.745Z,17.65
2016-12-05T00:15:27.052Z,17.66
2016-12-05T00:15:59.357Z,17.73
2016-12-05T00:16:31.674Z,17.76
2016-12-05T00:17:04.038Z,17.71
2016-12-05T00:17:36.355Z,17.55
2016-12-05T00:18:08.698Z,17.58
2016-12-05T00:18:41.032Z,17.71
2016-12-05T00:19:13.344Z,17.71
2016-12-05T00:19:45.680Z,17.54
2016-12-05T00:20:18.001Z,17.52
2016-12-05T00:20:50.317Z,17.66
2016-12-05T00:21:22.619Z,17.57
2016-12-05T00:21:54.940Z,17.65
2016-12-05T00:22:27.270Z,17.68
2016-12-05T00:22:59.568Z,17.65
2016-12-05T00:23:31.872Z,17.71
2016-12-05T00:24:04.217Z,17.69
2016-12-05T00:24:36.550Z,17.69
2016-12-05T00:25:08.862Z,17.6
2016-12-05T00:25:41.160Z,17.52
2016-12-05T00:26:13.454Z,17.68
2016-12-05T00:26:45.779Z,17.62
2016-12-05T00:27:18.089Z,17.6
2016-12-05T00:27:50.403Z,17.65
2016-12-05T00:28:22.707Z,17.6
2016-12-05T00:28:55.015Z,17.55
2016-12-05T00:29:27.322Z,17.54
2016-12-05T00:29:59.630Z,17.66
2016-12-05T00:30:31.964Z,17.65
2016-12-05T00:31:04.283Z,17.66
2016-12-05T00:31:36.600Z,17.65
2016-12-05T00:32:08.916Z,17.65
2016-12-05T00:32:41.204Z,17.63
2016-12-05T00:33:13.521Z,17.62
2016-12-05T00:33:45.829Z,17.65
2016-12-05T00:34:18.150Z,17.62
2016-12-05T00:34:50.473Z,17.58
2016-12-05T00:35:22.788Z,17.63
2016-12-05T00:35:55.108Z,17.6
2016-12-05T00:36:27.432Z,17.57
2016-12-05T00:36:59.721Z,17.6
2016-12-05T00:37:32.060Z,17.65
2016-12-05T00:38:04.376Z,17.58
2016-12-05T00:38:36.715Z,17.62
2016-12-05T00:39:09.015Z,17.6
2016-12-05T00:39:41.342Z,17.65
2016-12-05T00:40:13.665Z,17.58
2016-12-05T00:40:45.971Z,17.71
2016-12-05T00:41:18.288Z,17.6
2016-12-05T00:41:50.609Z,17.55
2016-12-05T00:42:22.942Z,17.54
2016-12-05T00:42:55.252Z,17.58
2016-12-05T00:43:27.574Z,17.55
2016-12-05T00:43:59.880Z,17.58
2016-12-05T00:44:32.188Z,17.62
2016-12-05T00:45:04.548Z,17.65
2016-12-05T00:45:36.873Z,17.63
2016-12-05T00:46:09.192Z,17.55
2016-12-05T00:46:41.533Z,17.54
2016-12-05T00:47:13.842Z,17.52
2016-12-05T00:47:46.161Z,17.57
2016-12-05T00:48:18.485Z,17.58
2016-12-05T00:48:50.795Z,17.6
2016-12-05T00:49:23.112Z,17.54
2016-12-05T00:49:55.421Z,17.57
2016-12-05T00:50:27.738Z,17.6
2016-12-05T00:51:00.055Z,17.55
2016-12-05T00:51:32.393Z,17.55
2016-12-05T00:52:04.718Z,17.6
2016-12-05T00:52:37.015Z,17.55
2016-12-05T00:53:09.314Z,17.54
2016-12-05T00:53:41.641Z,17.52
2016-12-05T00:54:13.960Z,17.5
2016-12-05T00:54:46.269Z,17.62
2016-12-05T00:55:18.586Z,17.6
2016-12-05T00:55:50.900Z,17.62
2016-12-05T00:56:23.229Z,17.58
2016-12-05T00:56:55.527Z,17.54
2016-12-05T00:57:27.842Z,17.54
2016-12-05T00:58:00.143Z,17.6
2016-12-05T00:58:32.465Z,17.58
2016-12-05T00:59:04.779Z,17.54
2016-12-05T00:59:37.092Z,17.52
2016-12-05T01:00:09.415Z,17.6
2016-12-05T01:00:41.742Z,17.63
2016-12-05T01:01:14.046Z,17.63
2016-12-05T01:01:46.357Z,17.49
2016-12-05T01:02:18.667Z,17.58
2016-12-05T01:02:51.007Z,17.63
2016-12-05T01:03:23.312Z,17.6
2016-12-05T01:03:55.629Z,17.49
2016-12-05T01:04:27.926Z,17.6
2016-12-05T01:05:00.251Z,17.52
2016-12-05T01:05:32.561Z,17.57
2016-12-05T01:06:04.879Z,17.55
2016-12-05T01:06:37.210Z,17.63
2016-12-05T01:07:09.564Z,17.55
2016-12-05T01:07:41.874Z,17.43
2016-12-05T01:08:14.200Z,17.54
2016-12-05T01:08:46.507Z,17.57
2016-12-05T01:09:18.817Z,17.42
2016-12-05T01:09:51.149Z,17.57
2016-12-05T01:10:23.475Z,17.58
2016-12-05T01:10:55.777Z,17.63
2016-12-05T01:11:28.099Z,17.6
2016-12-05T01:12:00.408Z,17.47
2016-12-05T01:12:32.747Z,17.58
2016-12-05T01:13:05.106Z,17.5
2016-12-05T01:13:37.412Z,17.39
2016-12-05T01:14:09.724Z,17.45
2016-12-05T01:14:42.029Z,17.6
2016-12-05T01:15:14.351Z,17.47
2016-12-05T01:15:46.699Z,17.6
2016-12-05T01:16:19.000Z,17.57
2016-12-05T01:16:51.308Z,17.54
2016-12-05T01:17:23.653Z,17.6
2016-12-05T01:17:55.961Z,17.49
2016-12-05T01:18:28.277Z,17.57
2016-12-05T01:19:00.595Z,17.38
2016-12-05T01:19:32.923Z,17.57
2016-12-05T01:20:05.231Z,17.5
2016-12-05T01:20:37.516Z,17.58
2016-12-05T01:21:09.821Z,17.47
2016-12-05T01:21:42.144Z,17.54
2016-12-05T01:22:14.444Z,17.49
2016-12-05T01:22:46.767Z,17.39
2016-12-05T01:23:19.089Z,17.58
2016-12-05T01:23:51.402Z,17.47
2016-12-05T01:24:23.711Z,17.57
2016-12-05T01:24:56.037Z,17.46
2016-12-05T01:25:28.367Z,17.47
2016-12-05T01:26:00.681Z,17.54
2016-12-05T01:26:33.009Z,17.47
2016-12-05T01:27:05.324Z,17.5
2016-12-05T01:27:37.657Z,17.55
2016-12-05T01:28:09.952Z,17.57
2016-12-05T01:28:42.240Z,17.57
2016-12-05T01:29:14.565Z,17.54
2016-12-05T01:29:46.898Z,17.58
2016-12-05T01:30:19.213Z,17.5
2016-12-05T01:30:51.554Z,17.6
2016-12-05T01:31:23.850Z,17.46
2016-12-05T01:31:56.154Z,17.5
2016-12-05T01:32:28.461Z,17.57
2016-12-05T01:33:00.825Z,17.5
2016-12-05T01:33:33.126Z,17.47
2016-12-05T01:34:05.441Z,17.46
2016-12-05T01:34:37.755Z,17.57
2016-12-05T01:35:10.080Z,17.57
2016-12-05T01:35:42.397Z,17.42
2016-12-05T01:36:14.719Z,17.5
2016-12-05T01:36:47.020Z,17.58
2016-12-05T01:37:19.325Z,17.5
2016-12-05T01:37:51.634Z,17.43
2016-12-05T01:38:23.947Z,17.57
2016-12-05T01:38:56.259Z,17.5
2016-12-05T01:39:28.587Z,17.57
2016-12-05T01:40:00.906Z,17.55
2016-12-05T01:40:33.211Z,17.6
2016-12-05T01:41:05.571Z,17.54
2016-12-05T01:41:37.888Z,17.5
2016-12-05T01:42:10.200Z,17.54
2016-12-05T01:42:42.498Z,17.55
2016-12-05T01:43:14.807Z,17.5
2016-12-05T01:43:47.129Z,17.47
2016-12-05T01:44:19.444Z,17.52
2016-12-05T01:44:51.761Z,17.55
2016-12-05T01:45:24.072Z,17.54
2016-12-05T01:45:56.367Z,17.47
2016-12-05T01:46:28.676Z,17.57
2016-12-05T01:47:00.996Z,17.47
2016-12-05T01:47:33.300Z,17.57
2016-12-05T01:48:05.614Z,17.49
2016-12-05T01:48:37.922Z,17.57
2016-12-05T01:49:10.235Z,17.6
2016-12-05T01:49:42.558Z,17.49
2016-12-05T01:50:14.904Z,17.47
2016-12-05T01:50:47.201Z,17.46
2016-12-05T01:51:19.507Z,17.58
2016-12-05T01:51:51.830Z,17.6
2016-12-05T01:52:24.160Z,17.46
2016-12-05T01:52:56.475Z,17.54
2016-12-05T01:53:28.792Z,17.54
2016-12-05T01:54:01.106Z,17.47
2016-12-05T01:54:33.442Z,17.55
2016-12-05T01:55:05.784Z,17.46
2016-12-05T01:55:38.109Z,17.5
2016-12-05T01:56:10.418Z,17.54
2016-12-05T01:56:42.736Z,17.55
2016-12-05T01:57:15.046Z,17.57
2016-12-05T01:57:47.373Z,17.52
2016-12-05T01:58:19.700Z,17.45
2016-12-05T01:58:52.001Z,17.52
2016-12-05T01:59:24.316Z,17.55
2016-12-05T01:59:56.651Z,17.55
2016-12-05T02:00:28.962Z,17.49
2016-12-05T02:01:01.287Z,17.47
2016-12-05T02:01:33.597Z,17.45
2016-12-05T02:02:05.917Z,17.46
2016-12-05T02:02:38.254Z,17.55
2016-12-05T02:03:10.569Z,17.49
2016-12-05T02:03:42.877Z,17.55
2016-12-05T02:04:15.190Z,17.58
2016-12-05T02:04:47.499Z,17.5
2016-12-05T02:05:19.803Z,17.47
2016-12-05T02:05:52.118Z,17.45
2016-12-05T02:06:24.422Z,17.58
2016-12-05T02:06:56.764Z,17.58
2016-12-05T02:07:29.079Z,17.5
2016-12-05T02:08:01.425Z,17.55
2016-12-05T02:08:33.727Z,17.55
2016-12-05T02:09:06.044Z,17.57
2016-12-05T02:09:38.333Z,17.46
2016-12-05T02:10:10.664Z,17.55
2016-12-05T02:10:42.996Z,17.57
2016-12-05T02:11:15.307Z,17.54
2016-12-05T02:11:47.629Z,17.49
2016-12-05T02:12:19.933Z,17.5
2016-12-05T02:12:52.253Z,17.46
2016-12-05T02:13:24.565Z,17.46
2016-12-05T02:13:56.870Z,17.52
2016-12-05T02:14:29.187Z,17.5
2016-12-05T02:15:01.496Z,17.45
2016-12-05T02:15:33.797Z,17.47
2016-12-05T02:16:06.140Z,17.55
2016-12-05T02:16:38.456Z,17.57
2016-12-05T02:17:10.754Z,17.54
2016-12-05T02:17:43.058Z,17.58
2016-12-05T02:18:15.347Z,17.49
2016-12-05T02:18:47.716Z,17.47
2016-12-05T02:19:20.043Z,17.55
2016-12-05T02:19:52.361Z,17.58
2016-12-05T02:20:24.676Z,17.47
2016-12-05T02:20:56.983Z,17.52
2016-12-05T02:21:29.328Z,17.55
2016-12-05T02:22:01.632Z,17.55
2016-12-05T02:22:33.966Z,17.5
2016-12-05T02:23:06.290Z,17.52
2016-12-05T02:23:38.613Z,17.55
2016-12-05T02:24:11.192Z,17.43
2016-12-05T02:24:43.492Z,17.5
2016-12-05T02:25:15.815Z,17.54
2016-12-05T02:25:48.137Z,17.58
2016-12-05T02:26:20.463Z,17.49
2016-12-05T02:26:52.798Z,17.54
2016-12-05T02:27:25.113Z,17.52
2016-12-05T02:27:57.435Z,17.54
2016-12-05T02:28:29.752Z,17.5
2016-12-05T02:29:02.069Z,17.45
2016-12-05T02:29:34.383Z,17.54
2016-12-05T02:30:06.700Z,17.54
2016-12-05T02:30:39.001Z,17.54
2016-12-05T02:31:11.315Z,17.43
2016-12-05T02:31:43.628Z,17.46
2016-12-05T02:32:15.932Z,17.5
2016-12-05T02:32:48.251Z,17.54
2016-12-05T02:33:20.563Z,17.55
2016-12-05T02:33:52.879Z,17.43
2016-12-05T02:34:25.187Z,17.43
2016-12-05T02:34:57.505Z,17.54
2016-12-05T02:35:29.814Z,17.52
2016-12-05T02:36:02.120Z,17.5
2016-12-05T02:36:34.449Z,17.6
2016-12-05T02:37:06.761Z,17.55
2016-12-05T02:37:39.069Z,17.54
2016-12-05T02:38:11.388Z,17.55
2016-12-05T02:38:43.696Z,17.46
2016-12-05T02:39:16.012Z,17.45
2016-12-05T02:39:48.354Z,17.43
2016-12-05T02:40:20.655Z,17.39
2016-12-05T02:40:52.985Z,17.54
2016-12-05T02:41:25.294Z,17.55
2016-12-05T02:41:57.608Z,17.45
2016-12-05T02:42:29.960Z,17.45
2016-12-05T02:43:02.265Z,17.42
2016-12-05T02:43:34.558Z,17.46
2016-12-05T02:44:06.871Z,17.4
2016-12-05T02:44:39.183Z,17.46
2016-12-05T02:45:11.541Z,17.43
2016-12-05T02:45:43.879Z,17.54
2016-12-05T02:46:16.175Z,17.4
2016-12-05T02:46:48.482Z,17.43
2016-12-05T02:47:20.795Z,17.43
2016-12-05T02:47:53.121Z,17.42
2016-12-05T02:48:25.453Z,17.43
2016-12-05T02:48:57.768Z,17.49
2016-12-05T02:49:30.100Z,17.4
2016-12-05T02:50:02.434Z,17.43
2016-12-05T02:50:34.740Z,17.4
2016-12-05T02:51:07.060Z,17.42
2016-12-05T02:51:39.397Z,17.47
2016-12-05T02:52:11.699Z,17.49
2016-12-05T02:52:43.999Z,17.46
2016-12-05T02:53:16.333Z,17.42
2016-12-05T02:53:48.657Z,17.45
2016-12-05T02:54:20.976Z,17.54
2016-12-05T02:54:53.291Z,17.46
2016-12-05T02:55:25.610Z,17.6
2016-12-05T02:55:57.911Z,17.45
2016-12-05T02:56:30.228Z,17.5
2016-12-05T02:57:02.551Z,17.5
2016-12-05T02:57:34.868Z,17.43
2016-12-05T02:58:07.181Z,17.52
2016-12-05T02:58:39.499Z,17.39
2016-12-05T02:59:11.794Z,17.55
2016-12-05T02:59:44.106Z,17.4
2016-12-05T03:00:16.452Z,17.39
2016-12-05T03:00:48.778Z,17.39
2016-12-05T03:01:21.094Z,17.47
2016-12-05T03:01:53.411Z,17.47
2016-12-05T03:02:25.739Z,17.4
2016-12-05T03:02:58.080Z,17.49
2016-12-05T03:03:30.425Z,17.45
2016-12-05T03:04:02.731Z,17.4
2016-12-05T03:04:35.052Z,17.49
2016-12-05T03:05:07.359Z,17.45
2016-12-05T03:05:39.669Z,17.39
2016-12-05T03:06:11.974Z,17.39
2016-12-05T03:06:44.303Z,17.49
2016-12-05T03:07:16.623Z,17.4
2016-12-05T03:07:48.933Z,17.47
2016-12-05T03:08:21.239Z,17.39
2016-12-05T03:08:53.564Z,17.46
2016-12-05T03:09:25.893Z,17.4
2016-12-05T03:09:58.224Z,17.43
2016-12-05T03:10:30.519Z,17.42
2016-12-05T03:11:02.815Z,17.46
2016-12-05T03:11:35.134Z,17.58
2016-12-05T03:12:07.456Z,17.47
2016-12-05T03:12:39.749Z,17.46
2016-12-05T03:13:12.071Z,17.54
2016-12-05T03:13:44.396Z,17.45
2016-12-05T03:14:16.715Z,17.43
2016-12-05T03:14:49.016Z,17.45
2016-12-05T03:15:21.311Z,17.42
2016-12-05T03:15:53.617Z,17.45
2016-12-05T03:16:25.954Z,17.45
2016-12-05T03:16:58.264Z,17.49
2016-12-05T03:17:30.573Z,17.5
2016-12-05T03:18:02.888Z,17.49
2016-12-05T03:18:35.229Z,17.43
2016-12-05T03:19:07.578Z,17.46
2016-12-05T03:19:39.932Z,17.42
2016-12-05T03:20:12.237Z,17.52
2016-12-05T03:20:44.562Z,17.45
2016-12-05T03:21:16.888Z,17.45
2016-12-05T03:21:49.198Z,17.52
2016-12-05T03:22:21.518Z,17.45
2016-12-05T03:22:53.811Z,17.39
2016-12-05T03:23:26.119Z,17.4
2016-12-05T03:23:58.420Z,17.46
2016-12-05T03:24:30.714Z,17.46
2016-12-05T03:25:03.031Z,17.46
2016-12-05T03:25:35.373Z,17.49
2016-12-05T03:26:07.691Z,17.45
2016-12-05T03:26:40.004Z,17.46
2016-12-05T03:27:12.322Z,17.45
2016-12-05T03:27:44.649Z,17.52
2016-12-05T03:28:16.953Z,17.36
2016-12-05T03:28:49.273Z,17.42
2016-12-05T03:29:21.593Z,17.43
2016-12-05T03:29:53.896Z,17.49
2016-12-05T03:30:26.210Z,17.45
2016-12-05T03:30:58.526Z,17.4
2016-12-05T03:31:30.874Z,17.4
2016-12-05T03:32:03.207Z,17.52
2016-12-05T03:32:35.514Z,17.43
2016-12-05T03:33:07.815Z,17.45
2016-12-05T03:33:40.137Z,17.47
2016-12-05T03:34:12.460Z,17.47
2016-12-05T03:34:44.780Z,17.46
2016-12-05T03:35:17.113Z,17.36
2016-12-05T03:35:49.417Z,17.49
2016-12-05T03:36:21.727Z,17.39
2016-12-05T03:36:54.058Z,17.46
2016-12-05T03:37:26.370Z,17.47
2016-12-05T03:37:58.692Z,17.46
2016-12-05T03:38:31.008Z,17.49
2016-12-05T03:39:03.328Z,17.47
2016-12-05T03:39:35.633Z,17.5
2016-12-05T03:40:07.942Z,17.4
2016-12-05T03:40:40.271Z,17.35
2016-12-05T03:41:12.588Z,17.42
2016-12-05T03:41:44.897Z,17.47
2016-12-05T03:42:17.239Z,17.45
2016-12-05T03:42:49.546Z,17.54
2016-12-05T03:43:21.867Z,17.46
2016-12-05T03:43:54.220Z,17.45
2016-12-05T03:44:26.518Z,17.39
2016-12-05T03:44:58.852Z,17.49
2016-12-05T03:45:31.166Z,17.46
2016-12-05T03:46:03.464Z,17.52
2016-12-05T03:46:35.790Z,17.46
2016-12-05T03:47:08.099Z,17.46
2016-12-05T03:47:40.395Z,17.43
2016-12-05T03:48:12.718Z,17.42
2016-12-05T03:48:45.033Z,17.5
2016-12-05T03:49:17.338Z,17.45
2016-12-05T03:49:49.654Z,17.58
2016-12-05T03:50:21.974Z,17.58
2016-12-05T03:50:54.285Z,17.55
2016-12-05T03:51:26.607Z,17.38
2016-12-05T03:51:58.925Z,17.46
2016-12-05T03:52:31.222Z,17.55
2016-12-05T03:53:03.564Z,17.46
2016-12-05T03:53:35.886Z,17.49
2016-12-05T03:54:08.195Z,17.42
2016-12-05T03:54:40.538Z,17.4
2016-12-05T03:55:12.860Z,17.46
2016-12-05T03:55:45.185Z,17.52
2016-12-05T03:56:17.493Z,17.45
2016-12-05T03:56:49.812Z,17.47
2016-12-05T03:57:22.124Z,17.47
2016-12-05T03:57:54.436Z,17.42
2016-12-05T03:58:26.751Z,17.45
2016-12-05T03:58:59.058Z,17.45
2016-12-05T03:59:31.388Z,17.4
2016-12-05T04:00:03.696Z,17.55
2016-12-05T04:00:36.035Z,17.46
2016-12-05T04:01:08.332Z,17.55
2016-12-05T04:01:40.648Z,17.58
2016-12-05T04:02:13.049Z,17.57
2016-12-05T04:02:45.345Z,17.46
2016-12-05T04:03:17.653Z,17.58
2016-12-05T04:03:50.003Z,17.55
2016-12-05T04:04:22.318Z,17.49
2016-12-05T04:04:54.625Z,17.55
2016-12-05T04:05:26.926Z,17.47
2016-12-05T04:05:59.245Z,17.55
2016-12-05T04:06:31.554Z,17.57
2016-12-05T04:07:03.879Z,17.57
2016-12-05T04:07:36.192Z,17.47
2016-12-05T04:08:08.501Z,17.46
2016-12-05T04:08:40.793Z,17.49
2016-12-05T04:09:13.117Z,17.6
2016-12-05T04:09:45.424Z,17.57
2016-12-05T04:10:17.747Z,17.6
2016-12-05T04:10:50.073Z,17.5
2016-12-05T04:11:22.390Z,17.57
2016-12-05T04:11:54.705Z,17.6
2016-12-05T04:12:27.036Z,17.62
2016-12-05T04:12:59.348Z,17.63
2016-12-05T04:13:31.662Z,17.57
2016-12-05T04:14:03.965Z,17.6
2016-12-05T04:14:36.284Z,17.57
2016-12-05T04:15:08.606Z,17.58
2016-12-05T04:15:40.935Z,17.57
2016-12-05T04:16:13.276Z,17.43
2016-12-05T04:16:45.594Z,17.58
2016-12-05T04:17:17.935Z,17.6
2016-12-05T04:17:50.259Z,17.45
2016-12-05T04:18:22.597Z,17.6
2016-12-05T04:18:54.903Z,17.6
2016-12-05T04:19:27.220Z,17.65
2016-12-05T04:19:59.527Z,17.62
2016-12-05T04:20:31.844Z,17.5
2016-12-05T04:21:04.146Z,17.55
2016-12-05T04:21:36.458Z,17.58
2016-12-05T04:22:08.783Z,17.58
2016-12-05T04:22:41.103Z,17.54
2016-12-05T04:23:13.419Z,17.58
2016-12-05T04:23:45.719Z,17.58
2016-12-05T04:24:18.020Z,17.58
2016-12-05T04:24:50.319Z,17.58
2016-12-05T04:25:22.642Z,17.52
2016-12-05T04:25:54.935Z,17.68
2016-12-05T04:26:27.252Z,17.65
2016-12-05T04:26:59.563Z,17.63
2016-12-05T04:27:31.884Z,17.66
2016-12-05T04:28:04.177Z,17.73
2016-12-05T04:28:36.480Z,17.58
2016-12-05T04:29:08.827Z,17.73
2016-12-05T04:29:41.120Z,17.6
2016-12-05T04:30:13.452Z,17.71
2016-12-05T04:30:45.759Z,17.73
2016-12-05T04:31:18.068Z,17.71
2016-12-05T04:31:50.380Z,17.6
2016-12-05T04:32:22.710Z,17.58
2016-12-05T04:32:55.054Z,17.6
2016-12-05T04:33:27.402Z,17.68
2016-12-05T04:33:59.733Z,17.58
2016-12-05T04:34:32.071Z,17.63
2016-12-05T04:35:04.392Z,17.73
2016-12-05T04:35:36.709Z,17.68
2016-12-05T04:36:09.034Z,17.55
2016-12-05T04:36:41.355Z,17.69
2016-12-05T04:37:13.656Z,17.66
2016-12-05T04:37:45.971Z,17.63
2016-12-05T04:38:18.282Z,17.71
2016-12-05T04:38:50.649Z,17.69
2016-12-05T04:39:23.236Z,17.74
2016-12-05T04:39:55.557Z,17.69
2016-12-05T04:40:27.857Z,17.62
2016-12-05T04:41:00.215Z,17.63
2016-12-05T04:41:32.535Z,17.57
2016-12-05T04:42:04.885Z,17.69
2016-12-05T04:42:37.217Z,17.65
2016-12-05T04:43:09.539Z,17.58
2016-12-05T04:43:41.872Z,17.73
2016-12-05T04:44:14.175Z,17.74
2016-12-05T04:44:46.491Z,17.71
2016-12-05T04:45:18.826Z,17.68
2016-12-05T04:45:51.140Z,17.73
2016-12-05T04:46:23.460Z,17.62
2016-12-05T04:46:55.786Z,17.69
2016-12-05T04:47:28.093Z,17.66
2016-12-05T04:48:00.430Z,17.74
2016-12-05T04:48:32.762Z,17.66
2016-12-05T04:49:05.072Z,17.54
2016-12-05T04:49:37.384Z,17.74
2016-12-05T04:50:09.699Z,17.76
2016-12-05T04:50:42.016Z,17.74
2016-12-05T04:51:14.342Z,17.55
2016-12-05T04:51:46.650Z,17.71
2016-12-05T04:52:18.960Z,17.74
2016-12-05T04:52:51.273Z,17.58
2016-12-05T04:53:23.588Z,17.66
2016-12-05T04:53:55.907Z,17.6
2016-12-05T04:54:28.230Z,17.76
2016-12-05T04:55:00.550Z,17.55
2016-12-05T04:55:32.875Z,17.66
2016-12-05T04:56:05.191Z,17.6
2016-12-05T04:56:37.507Z,17.57
2016-12-05T04:57:09.833Z,17.71
2016-12-05T04:57:42.131Z,17.68
2016-12-05T04:58:14.430Z,17.68
2016-12-05T04:58:46.778Z,17.58
2016-12-05T04:59:19.088Z,17.63
2016-12-05T04:59:51.400Z,17.58
2016-12-05T05:00:23.710Z,17.57
2016-12-05T05:00:56.034Z,17.68
2016-12-05T05:01:28.362Z,17.57
2016-12-05T05:02:00.644Z,17.68
2016-12-05T05:02:32.951Z,17.68
2016-12-05T05:03:05.267Z,17.63
2016-12-05T05:03:37.572Z,17.57
2016-12-05T05:04:09.894Z,17.74
2016-12-05T05:04:42.202Z,17.6
2016-12-05T05:05:14.531Z,17.71
2016-12-05T05:05:46.846Z,17.76
2016-12-05T05:06:19.156Z,17.63
2016-12-05T05:06:51.488Z,17.71
2016-12-05T05:07:23.820Z,17.57
2016-12-05T05:07:56.166Z,17.74
2016-12-05T05:08:28.491Z,17.66
2016-12-05T05:09:00.833Z,17.57
2016-12-05T05:09:33.152Z,17.6
2016-12-05T05:10:05.460Z,17.62
2016-12-05T05:10:37.780Z,17.74
2016-12-05T05:11:10.097Z,17.6
2016-12-05T05:11:42.422Z,17.63
2016-12-05T05:12:14.745Z,17.57
2016-12-05T05:12:47.067Z,17.69
2016-12-05T05:13:19.383Z,17.69
2016-12-05T05:13:51.703Z,17.68
2016-12-05T05:14:24.017Z,17.71
2016-12-05T05:14:56.352Z,17.71
2016-12-05T05:15:28.656Z,17.69
2016-12-05T05:16:00.953Z,17.76
2016-12-05T05:16:33.259Z,17.57
2016-12-05T05:17:05.584Z,17.55
2016-12-05T05:17:37.898Z,17.57
2016-12-05T05:18:10.224Z,17.71
2016-12-05T05:18:42.565Z,17.55
2016-12-05T05:19:14.889Z,17.69
2016-12-05T05:19:47.212Z,17.69
2016-12-05T05:20:19.546Z,17.65
2016-12-05T05:20:51.911Z,17.55
2016-12-05T05:21:24.236Z,17.68
2016-12-05T05:21:56.543Z,17.68
2016-12-05T05:22:28.856Z,17.73
2016-12-05T05:23:01.161Z,17.62
2016-12-05T05:23:33.474Z,17.69
2016-12-05T05:24:05.778Z,17.73
2016-12-05T05:24:38.087Z,17.69
2016-12-05T05:25:10.397Z,17.58
2016-12-05T05:25:42.716Z,17.6
2016-12-05T05:26:15.047Z,17.68
2016-12-05T05:26:47.330Z,17.62
2016-12-05T05:27:19.661Z,17.66
2016-12-05T05:27:51.993Z,17.65
2016-12-05T05:28:24.301Z,17.63
2016-12-05T05:28:56.633Z,17.6
2016-12-05T05:29:28.926Z,17.68
2016-12-05T05:30:01.229Z,17.66
2016-12-05T05:30:33.582Z,17.65
2016-12-05T05:31:05.900Z,17.55
2016-12-05T05:31:38.215Z,17.65
2016-12-05T05:32:10.538Z,17.71
2016-12-05T05:32:42.870Z,17.71
2016-12-05T05:33:15.172Z,17.73
2016-12-05T05:33:47.485Z,17.68
2016-12-05T05:34:19.821Z,17.68
2016-12-05T05:34:52.136Z,17.69
2016-12-05T05:35:24.449Z,17.71
2016-12-05T05:35:56.756Z,17.68
2016-12-05T05:36:29.064Z,17.58
2016-12-05T05:37:01.394Z,17.71
2016-12-05T05:37:33.744Z,17.71
2016-12-05T05:38:06.047Z,17.62
2016-12-05T05:38:38.360Z,17.66
2016-12-05T05:39:10.672Z,17.66
2016-12-05T05:39:42.979Z,17.68
2016-12-05T05:40:16.388Z,17.71
2016-12-05T05:40:48.702Z,17.62
2016-12-05T05:41:21.021Z,17.74
2016-12-05T05:41:53.326Z,17.66
2016-12-05T05:42:25.648Z,17.66
2016-12-05T05:42:57.936Z,17.68
2016-12-05T05:43:30.251Z,17.66
2016-12-05T05:44:02.568Z,17.69
2016-12-05T05:44:34.871Z,17.68
2016-12-05T05:45:07.201Z,17.63
2016-12-05T05:45:39.520Z,17.66
2016-12-05T05:46:11.851Z,17.71
2016-12-05T05:46:44.181Z,17.65
2016-12-05T05:47:16.492Z,17.62
2016-12-05T05:47:48.826Z,17.69
2016-12-05T05:48:21.155Z,17.71
2016-12-05T05:48:53.498Z,17.71
2016-12-05T05:49:25.800Z,17.63
2016-12-05T05:49:58.114Z,17.63
2016-12-05T05:50:30.480Z,17.65
2016-12-05T05:51:02.775Z,17.69
2016-12-05T05:51:35.082Z,17.65
2016-12-05T05:52:07.385Z,17.65
2016-12-05T05:52:39.694Z,17.65
2016-12-05T05:53:11.995Z,17.73
2016-12-05T05:53:44.318Z,17.65
2016-12-05T05:54:16.622Z,17.65
2016-12-05T05:54:48.925Z,17.66
2016-12-05T05:55:21.249Z,17.66
2016-12-05T05:55:53.571Z,17.66
2016-12-05T05:56:25.888Z,17.69
2016-12-05T05:56:58.206Z,17.65
2016-12-05T05:57:30.537Z,17.63
2016-12-05T05:58:02.862Z,17.62
2016-12-05T05:58:35.182Z,17.65
2016-12-05T05:59:07.487Z,17.74
2016-12-05T05:59:39.793Z,17.65
2016-12-05T06:00:12.088Z,17.76
2016-12-05T06:00:44.406Z,17.68
2016-12-05T06:01:16.728Z,17.62
2016-12-05T06:01:50.272Z,17.71
2016-12-05T06:02:22.586Z,17.69
2016-12-05T06:02:54.907Z,17.65
2016-12-05T06:03:27.239Z,17.73
2016-12-05T06:03:59.584Z,17.66
2016-12-05T06:04:31.930Z,17.69
2016-12-05T06:05:04.245Z,17.68
2016-12-05T06:05:36.565Z,17.73
2016-12-05T06:06:08.869Z,17.63
2016-12-05T06:06:41.180Z,17.68
2016-12-05T06:07:13.495Z,17.58
2016-12-05T06:07:45.839Z,17.62
2016-12-05T06:08:18.146Z,17.69
2016-12-05T06:08:51.230Z,17.65
2016-12-05T06:09:23.530Z,17.69
2016-12-05T06:09:55.839Z,17.65
2016-12-05T06:10:28.144Z,17.68
2016-12-05T06:11:00.461Z,17.71
2016-12-05T06:11:32.764Z,17.69
2016-12-05T06:12:05.083Z,17.69
2016-12-05T06:12:37.405Z,17.66
2016-12-05T06:13:09.701Z,17.66
2016-12-05T06:13:42.025Z,17.68
2016-12-05T06:14:14.344Z,17.65
2016-12-05T06:14:46.660Z,17.65
2016-12-05T06:15:18.969Z,17.69
2016-12-05T06:15:52.360Z,17.68
2016-12-05T06:16:25.726Z,17.6
2016-12-05T06:16:58.082Z,17.65
2016-12-05T06:17:30.433Z,17.65
2016-12-05T06:18:02.749Z,17.66
2016-12-05T06:18:35.075Z,17.69
2016-12-05T06:19:07.383Z,17.66
2016-12-05T06:19:39.695Z,17.68
2016-12-05T06:20:12.816Z,17.68
2016-12-05T06:20:45.135Z,17.63
2016-12-05T06:21:17.476Z,17.69
2016-12-05T06:21:49.791Z,17.62
2016-12-05T06:22:22.091Z,17.71
2016-12-05T06:22:54.393Z,17.63
2016-12-05T06:23:26.712Z,17.69
2016-12-05T06:23:59.043Z,17.66
2016-12-05T06:24:31.337Z,17.69
2016-12-05T06:25:04.825Z,17.65
2016-12-05T06:25:37.154Z,17.6
2016-12-05T06:26:09.472Z,17.63
2016-12-05T06:26:41.857Z,17.66
2016-12-05T06:27:14.195Z,17.65
2016-12-05T06:27:46.510Z,17.65
2016-12-05T06:28:18.827Z,17.69
2016-12-05T06:28:51.143Z,17.65
2016-12-05T06:29:23.454Z,17.63
2016-12-05T06:29:55.776Z,17.66
2016-12-05T06:30:28.099Z,17.71
2016-12-05T06:31:00.409Z,17.68
2016-12-05T06:31:32.729Z,17.63
2016-12-05T06:32:05.042Z,17.65
2016-12-05T06:32:37.375Z,17.69
2016-12-05T06:33:09.679Z,17.66
2016-12-05T06:33:41.996Z,17.65
2016-12-05T06:34:14.312Z,17.65
2016-12-05T06:34:47.165Z,17.62
2016-12-05T06:35:19.470Z,17.66
2016-12-05T06:35:54.040Z,17.71
2016-12-05T06:36:26.339Z,17.77
2016-12-05T06:36:58.657Z,17.65
2016-12-05T06:37:30.990Z,17.62
2016-12-05T06:38:03.300Z,17.66
2016-12-05T06:38:35.640Z,17.68
2016-12-05T06:39:07.966Z,17.68
2016-12-05T06:39:41.231Z,17.63
2016-12-05T06:40:13.569Z,17.63
2016-12-05T06:40:45.878Z,17.69
2016-12-05T06:41:18.278Z,17.65
2016-12-05T06:41:50.594Z,17.68
2016-12-05T06:42:23.214Z,17.66
2016-12-05T06:42:55.523Z,17.65
2016-12-05T06:43:27.857Z,17.66
2016-12-05T06:44:00.176Z,17.66
2016-12-05T06:44:32.489Z,17.65
2016-12-05T06:45:04.799Z,17.65
2016-12-05T06:45:37.111Z,17.77
2016-12-05T06:46:09.550Z,17.69
2016-12-05T06:46:41.917Z,17.69
2016-12-05T06:47:14.220Z,17.66
2016-12-05T06:47:46.568Z,17.69
2016-12-05T06:48:18.885Z,17.66
2016-12-05T06:48:51.226Z,17.63
2016-12-05T06:49:23.556Z,17.63
2016-12-05T06:49:55.867Z,17.66
2016-12-05T06:50:28.205Z,17.66
2016-12-05T06:51:00.549Z,17.65
2016-12-05T06:51:32.860Z,17.66
2016-12-05T06:52:05.184Z,17.69
2016-12-05T06:52:37.551Z,17.74
2016-12-05T06:53:10.754Z,17.62
2016-12-05T06:53:43.861Z,17.71
2016-12-05T06:54:16.185Z,17.68
2016-12-05T06:54:48.495Z,17.66
2016-12-05T06:55:20.808Z,17.69
2016-12-05T06:55:53.118Z,17.69
2016-12-05T06:56:25.439Z,17.71
2016-12-05T06:56:57.744Z,17.63
2016-12-05T06:57:30.091Z,17.69
2016-12-05T06:58:02.394Z,17.76